sensor_id;sensor_type;location;lat;lon;timestamp;pressure;altitude;pressure_sealevel;temperature;humidity
67654;BME280;54791;52.364;4.648;2022-09-30T00:01:17;100814.81;;;10.68;100.00
67654;BME280;54791;52.364;4.648;2022-09-30T00:03:43;100814.38;;;10.57;100.00
67654;BME280;54791;52.364;4.648;2022-09-30T00:06:09;100821.81;;;10.47;100.00
67654;BME280;54791;52.364;4.648;2022-09-30T00:08:36;100831.91;;;10.37;100.00
67654;BME280;54791;52.364;4.648;2022-09-30T00:11:07;100826.59;;;10.37;100.00
67654;BME280;54791;52.364;4.648;2022-09-30T00:13:36;100830.38;;;10.30;100.00
67654;BME280;54791;52.364;4.648;2022-09-30T00:16:02;100827.94;;;10.23;100.00
67654;BME280;54791;52.364;4.648;2022-09-30T00:18:28;100833.38;;;10.20;100.00
67654;BME280;54791;52.364;4.648;2022-09-30T00:20:54;100830.09;;;10.14;100.00
67654;BME280;54791;52.364;4.648;2022-09-30T00:23:21;100831.34;;;10.03;100.00
67654;BME280;54791;52.364;4.648;2022-09-30T00:25:47;100827.94;;;10.00;100.00
67654;BME280;54791;52.364;4.648;2022-09-30T00:28:14;100823.56;;;9.99;100.00
67654;BME280;54791;52.364;4.648;2022-09-30T00:30:40;100828.16;;;9.94;100.00
67654;BME280;54791;52.364;4.648;2022-09-30T00:33:06;100828.97;;;9.96;100.00
67654;BME280;54791;52.364;4.648;2022-09-30T00:35:32;100827.09;;;9.99;100.00
67654;BME280;54791;52.364;4.648;2022-09-30T00:37:58;100828.00;;;9.98;100.00
67654;BME280;54791;52.364;4.648;2022-09-30T00:40:25;100828.06;;;9.97;100.00
67654;BME280;54791;52.364;4.648;2022-09-30T00:42:50;100827.09;;;9.99;100.00
67654;BME280;54791;52.364;4.648;2022-09-30T00:45:16;100826.19;;;9.99;100.00
67654;BME280;54791;52.364;4.648;2022-09-30T00:47:54;100826.66;;;9.86;100.00
67654;BME280;54791;52.364;4.648;2022-09-30T00:50:44;100823.13;;;9.86;100.00
67654;BME280;54791;52.364;4.648;2022-09-30T00:53:13;100828.53;;;9.83;100.00
67654;BME280;54791;52.364;4.648;2022-09-30T00:55:54;100828.28;;;9.90;100.00
67654;BME280;54791;52.364;4.648;2022-09-30T00:58:48;100833.44;;;9.94;100.00
67654;BME280;54791;52.364;4.648;2022-09-30T01:01:11;100828.78;;;10.00;100.00
67654;BME280;54791;52.364;4.648;2022-09-30T01:03:40;100821.59;;;10.04;100.00
67654;BME280;54791;52.364;4.648;2022-09-30T01:06:08;100820.84;;;10.00;100.00
67654;BME280;54791;52.364;4.648;2022-09-30T01:08:37;100821.94;;;9.95;100.00
67654;BME280;54791;52.364;4.648;2022-09-30T01:11:04;100827.44;;;9.88;100.00
67654;BME280;54791;52.364;4.648;2022-09-30T01:13:31;100828.47;;;9.84;100.00
67654;BME280;54791;52.364;4.648;2022-09-30T01:21:25;100836.19;;;9.65;100.00
67654;BME280;54791;52.364;4.648;2022-09-30T01:32:39;100826.44;;;9.67;100.00
67654;BME280;54791;52.364;4.648;2022-09-30T01:38:12;100832.91;;;9.59;100.00
67654;BME280;54791;52.364;4.648;2022-09-30T01:40:50;100836.19;;;9.67;100.00
67654;BME280;54791;52.364;4.648;2022-09-30T01:46:56;100835.16;;;9.71;100.00
67654;BME280;54791;52.364;4.648;2022-09-30T01:49:46;100837.84;;;9.69;100.00
67654;BME280;54791;52.364;4.648;2022-09-30T01:57:00;100821.91;;;9.71;100.00
67654;BME280;54791;52.364;4.648;2022-09-30T01:59:36;100815.56;;;9.75;100.00
67654;BME280;54791;52.364;4.648;2022-09-30T02:02:08;100823.78;;;9.67;100.00
67654;BME280;54791;52.364;4.648;2022-09-30T02:04:43;100821.22;;;9.39;100.00
67654;BME280;54791;52.364;4.648;2022-09-30T02:07:16;100824.97;;;9.33;100.00
67654;BME280;54791;52.364;4.648;2022-09-30T02:09:53;100816.25;;;9.30;100.00
67654;BME280;54791;52.364;4.648;2022-09-30T02:12:25;100813.66;;;9.28;100.00
67654;BME280;54791;52.364;4.648;2022-09-30T02:15:02;100818.25;;;9.23;100.00
67654;BME280;54791;52.364;4.648;2022-09-30T02:17:36;100813.16;;;9.17;100.00
67654;BME280;54791;52.364;4.648;2022-09-30T02:20:12;100823.84;;;9.14;100.00
67654;BME280;54791;52.364;4.648;2022-09-30T02:22:42;100817.72;;;9.12;100.00
67654;BME280;54791;52.364;4.648;2022-09-30T02:25:15;100818.50;;;9.15;100.00
67654;BME280;54791;52.364;4.648;2022-09-30T02:27:49;100825.28;;;9.22;100.00
67654;BME280;54791;52.364;4.648;2022-09-30T02:30:17;100833.09;;;9.27;100.00
67654;BME280;54791;52.364;4.648;2022-09-30T02:32:56;100835.69;;;9.29;100.00
67654;BME280;54791;52.364;4.648;2022-09-30T02:35:49;100830.28;;;9.32;100.00
67654;BME280;54791;52.364;4.648;2022-09-30T02:38:20;100832.06;;;9.31;100.00
67654;BME280;54791;52.364;4.648;2022-09-30T02:40:54;100836.53;;;9.29;100.00
67654;BME280;54791;52.364;4.648;2022-09-30T02:43:21;100838.50;;;9.24;100.00
67654;BME280;54791;52.364;4.648;2022-09-30T02:48:38;100839.66;;;9.15;100.00
67654;BME280;54791;52.364;4.648;2022-09-30T02:51:16;100834.44;;;9.12;100.00
67654;BME280;54791;52.364;4.648;2022-09-30T02:53:51;100842.44;;;9.11;100.00
67654;BME280;54791;52.364;4.648;2022-09-30T02:56:28;100846.88;;;9.10;100.00
67654;BME280;54791;52.364;4.648;2022-09-30T02:59:01;100843.34;;;9.10;100.00
67654;BME280;54791;52.364;4.648;2022-09-30T03:01:26;100838.34;;;9.00;100.00
67654;BME280;54791;52.364;4.648;2022-09-30T03:03:58;100849.91;;;8.98;100.00
67654;BME280;54791;52.364;4.648;2022-09-30T03:06:27;100850.06;;;8.93;100.00
67654;BME280;54791;52.364;4.648;2022-09-30T03:08:53;100856.56;;;8.83;100.00
67654;BME280;54791;52.364;4.648;2022-09-30T03:11:25;100856.56;;;8.83;100.00
67654;BME280;54791;52.364;4.648;2022-09-30T03:14:24;100859.94;;;8.86;100.00
67654;BME280;54791;52.364;4.648;2022-09-30T03:17:36;100852.94;;;8.85;100.00
67654;BME280;54791;52.364;4.648;2022-09-30T03:19:52;100860.19;;;8.79;100.00
67654;BME280;54791;52.364;4.648;2022-09-30T03:22:27;100863.94;;;8.71;100.00
67654;BME280;54791;52.364;4.648;2022-09-30T03:28:14;100876.03;;;8.79;100.00
67654;BME280;54791;52.364;4.648;2022-09-30T03:33:32;100869.78;;;8.81;100.00
67654;BME280;54791;52.364;4.648;2022-09-30T03:38:58;100879.47;;;8.82;100.00
67654;BME280;54791;52.364;4.648;2022-09-30T03:42:11;100882.28;;;8.76;100.00
67654;BME280;54791;52.364;4.648;2022-09-30T03:44:44;100877.72;;;8.83;100.00
67654;BME280;54791;52.364;4.648;2022-09-30T03:47:14;100883.84;;;8.83;100.00
67654;BME280;54791;52.364;4.648;2022-09-30T03:49:47;100882.34;;;8.74;100.00
67654;BME280;54791;52.364;4.648;2022-09-30T03:52:14;100880.59;;;8.73;100.00
67654;BME280;54791;52.364;4.648;2022-09-30T03:54:52;100885.16;;;8.70;100.00
67654;BME280;54791;52.364;4.648;2022-09-30T03:57:19;100892.19;;;8.69;100.00
67654;BME280;54791;52.364;4.648;2022-09-30T03:59:45;100887.78;;;8.70;100.00
67654;BME280;54791;52.364;4.648;2022-09-30T04:02:11;100884.06;;;8.76;100.00
67654;BME280;54791;52.364;4.648;2022-09-30T04:04:41;100884.84;;;8.79;100.00
67654;BME280;54791;52.364;4.648;2022-09-30T04:07:08;100883.06;;;8.80;100.00
67654;BME280;54791;52.364;4.648;2022-09-30T04:09:35;100880.47;;;8.78;100.00
67654;BME280;54791;52.364;4.648;2022-09-30T04:12:01;100885.03;;;8.73;100.00
67654;BME280;54791;52.364;4.648;2022-09-30T04:14:27;100895.16;;;8.58;100.00
67654;BME280;54791;52.364;4.648;2022-09-30T04:16:52;100893.59;;;8.51;100.00
67654;BME280;54791;52.364;4.648;2022-09-30T04:19:18;100895.88;;;8.64;100.00
67654;BME280;54791;52.364;4.648;2022-09-30T04:21:44;100896.63;;;8.69;100.00
67654;BME280;54791;52.364;4.648;2022-09-30T04:24:10;100894.94;;;8.66;100.00
67654;BME280;54791;52.364;4.648;2022-09-30T04:26:36;100896.75;;;8.64;100.00
67654;BME280;54791;52.364;4.648;2022-09-30T04:29:01;100892.19;;;8.69;100.00
67654;BME280;54791;52.364;4.648;2022-09-30T04:31:27;100896.44;;;8.75;100.00
67654;BME280;54791;52.364;4.648;2022-09-30T04:33:55;100892.69;;;8.82;100.00
67654;BME280;54791;52.364;4.648;2022-09-30T04:36:21;100894.38;;;8.85;100.00
67654;BME280;54791;52.364;4.648;2022-09-30T04:38:47;100898.69;;;8.87;100.00
67654;BME280;54791;52.364;4.648;2022-09-30T04:41:15;100901.41;;;8.86;100.00
67654;BME280;54791;52.364;4.648;2022-09-30T04:43:42;100894.25;;;8.89;100.00
67654;BME280;54791;52.364;4.648;2022-09-30T04:46:17;100905.59;;;8.93;100.00
67654;BME280;54791;52.364;4.648;2022-09-30T04:48:44;100910.72;;;8.98;100.00
67654;BME280;54791;52.364;4.648;2022-09-30T04:51:20;100916.59;;;9.07;100.00
67654;BME280;54791;52.364;4.648;2022-09-30T04:53:47;100918.09;;;9.16;100.00
67654;BME280;54791;52.364;4.648;2022-09-30T04:56:13;100918.97;;;9.17;100.00
67654;BME280;54791;52.364;4.648;2022-09-30T04:58:41;100922.34;;;9.22;100.00
67654;BME280;54791;52.364;4.648;2022-09-30T05:01:10;100922.22;;;9.25;100.00
67654;BME280;54791;52.364;4.648;2022-09-30T05:03:36;100923.28;;;9.19;100.00
67654;BME280;54791;52.364;4.648;2022-09-30T05:06:04;100931.13;;;9.22;100.00
67654;BME280;54791;52.364;4.648;2022-09-30T05:08:30;100925.84;;;9.22;100.00
67654;BME280;54791;52.364;4.648;2022-09-30T05:11:00;100936.41;;;9.22;100.00
67654;BME280;54791;52.364;4.648;2022-09-30T05:13:32;100927.47;;;9.27;100.00
67654;BME280;54791;52.364;4.648;2022-09-30T05:15:57;100932.91;;;9.22;100.00
67654;BME280;54791;52.364;4.648;2022-09-30T05:18:23;100929.31;;;9.24;100.00
67654;BME280;54791;52.364;4.648;2022-09-30T05:20:53;100926.47;;;9.31;100.00
67654;BME280;54791;52.364;4.648;2022-09-30T05:23:19;100919.13;;;9.39;100.00
67654;BME280;54791;52.364;4.648;2022-09-30T05:25:46;100913.66;;;9.45;100.00
67654;BME280;54791;52.364;4.648;2022-09-30T05:28:13;100911.53;;;9.56;100.00
67654;BME280;54791;52.364;4.648;2022-09-30T05:30:40;100919.41;;;9.58;100.00
67654;BME280;54791;52.364;4.648;2022-09-30T05:33:06;100921.44;;;9.50;100.00
67654;BME280;54791;52.364;4.648;2022-09-30T05:35:33;100920.63;;;9.48;100.00
67654;BME280;54791;52.364;4.648;2022-09-30T05:37:59;100920.47;;;9.52;100.00
67654;BME280;54791;52.364;4.648;2022-09-30T05:40:25;100919.41;;;9.58;100.00
67654;BME280;54791;52.364;4.648;2022-09-30T05:42:51;100921.88;;;9.63;100.00
67654;BME280;54791;52.364;4.648;2022-09-30T05:45:17;100929.69;;;9.67;100.00
67654;BME280;54791;52.364;4.648;2022-09-30T05:47:50;100930.47;;;9.71;100.00
67654;BME280;54791;52.364;4.648;2022-09-30T05:50:16;100936.66;;;9.70;100.00
67654;BME280;54791;52.364;4.648;2022-09-30T05:52:42;100933.06;;;9.72;100.00
67654;BME280;54791;52.364;4.648;2022-09-30T05:55:07;100942.78;;;9.72;100.00
67654;BME280;54791;52.364;4.648;2022-09-30T05:57:33;100933.00;;;9.74;100.00
67654;BME280;54791;52.364;4.648;2022-09-30T06:00:00;100944.50;;;9.73;100.00
67654;BME280;54791;52.364;4.648;2022-09-30T06:02:26;100943.63;;;9.72;100.00
67654;BME280;54791;52.364;4.648;2022-09-30T06:04:51;100948.78;;;9.77;100.00
67654;BME280;54791;52.364;4.648;2022-09-30T06:07:17;100940.72;;;10.07;100.00
67654;BME280;54791;52.364;4.648;2022-09-30T06:09:42;100942.72;;;11.43;100.00
67654;BME280;54791;52.364;4.648;2022-09-30T06:12:10;100949.00;;;11.84;100.00
67654;BME280;54791;52.364;4.648;2022-09-30T06:14:36;100941.25;;;11.58;100.00
67654;BME280;54791;52.364;4.648;2022-09-30T06:17:02;100949.00;;;11.42;100.00
67654;BME280;54791;52.364;4.648;2022-09-30T06:19:29;100940.94;;;11.65;100.00
67654;BME280;54791;52.364;4.648;2022-09-30T06:21:56;100948.84;;;11.45;100.00
67654;BME280;54791;52.364;4.648;2022-09-30T06:24:21;100952.94;;;10.85;100.00
67654;BME280;54791;52.364;4.648;2022-09-30T06:26:47;100955.66;;;10.60;100.00
67654;BME280;54791;52.364;4.648;2022-09-30T06:29:13;100957.19;;;10.42;100.00
67654;BME280;54791;52.364;4.648;2022-09-30T06:31:39;100959.13;;;10.37;100.00
67654;BME280;54791;52.364;4.648;2022-09-30T06:34:05;100963.56;;;10.35;100.00
67654;BME280;54791;52.364;4.648;2022-09-30T06:36:31;100962.94;;;10.28;100.00
67654;BME280;54791;52.364;4.648;2022-09-30T06:39:03;100966.34;;;10.32;100.00
67654;BME280;54791;52.364;4.648;2022-09-30T06:41:30;100965.47;;;10.31;100.00
67654;BME280;54791;52.364;4.648;2022-09-30T06:43:56;100964.06;;;10.21;100.00
67654;BME280;54791;52.364;4.648;2022-09-30T06:46:23;100964.94;;;10.21;100.00
67654;BME280;54791;52.364;4.648;2022-09-30T06:48:54;100969.41;;;10.19;100.00
67654;BME280;54791;52.364;4.648;2022-09-30T06:51:20;100964.06;;;10.21;100.00
67654;BME280;54791;52.364;4.648;2022-09-30T06:53:50;100962.22;;;10.23;100.00
67654;BME280;54791;52.364;4.648;2022-09-30T06:56:16;100971.22;;;10.19;100.00
67654;BME280;54791;52.364;4.648;2022-09-30T06:58:43;100959.53;;;10.25;100.00
67654;BME280;54791;52.364;4.648;2022-09-30T07:01:09;100967.31;;;10.29;100.00
67654;BME280;54791;52.364;4.648;2022-09-30T07:03:41;100956.47;;;10.37;100.00
67654;BME280;54791;52.364;4.648;2022-09-30T07:06:07;100958.78;;;10.46;100.00
67654;BME280;54791;52.364;4.648;2022-09-30T07:08:35;100949.72;;;10.53;100.00
67654;BME280;54791;52.364;4.648;2022-09-30T07:11:05;100945.06;;;10.59;100.00
67654;BME280;54791;52.364;4.648;2022-09-30T07:13:36;100945.91;;;10.61;100.00
67654;BME280;54791;52.364;4.648;2022-09-30T07:16:02;100950.09;;;10.66;100.00
67654;BME280;54791;52.364;4.648;2022-09-30T07:18:28;100948.13;;;10.71;100.00
67654;BME280;54791;52.364;4.648;2022-09-30T07:20:55;100937.53;;;10.71;100.00
67654;BME280;54791;52.364;4.648;2022-09-30T07:23:21;100942.91;;;10.70;100.00
67654;BME280;54791;52.364;4.648;2022-09-30T07:25:49;100943.94;;;10.66;100.00
67654;BME280;54791;52.364;4.648;2022-09-30T07:28:16;100945.59;;;10.68;100.00
67654;BME280;54791;52.364;4.648;2022-09-30T07:30:42;100949.13;;;10.69;100.00
67654;BME280;54791;52.364;4.648;2022-09-30T07:33:08;100947.84;;;10.79;100.00
67654;BME280;54791;52.364;4.648;2022-09-30T07:35:35;100943.06;;;10.89;100.00
67654;BME280;54791;52.364;4.648;2022-09-30T07:38:02;100949.34;;;10.86;100.00
67654;BME280;54791;52.364;4.648;2022-09-30T07:40:28;100951.31;;;10.81;100.00
67654;BME280;54791;52.364;4.648;2022-09-30T07:42:56;100945.16;;;10.81;100.00
67654;BME280;54791;52.364;4.648;2022-09-30T07:45:23;100952.22;;;10.80;100.00
67654;BME280;54791;52.364;4.648;2022-09-30T07:47:50;100949.06;;;10.94;100.00
67654;BME280;54791;52.364;4.648;2022-09-30T07:50:16;100942.91;;;10.94;100.00
67654;BME280;54791;52.364;4.648;2022-09-30T07:52:42;100946.56;;;10.89;100.00
67654;BME280;54791;52.364;4.648;2022-09-30T07:55:08;100951.78;;;10.93;100.00
67654;BME280;54791;52.364;4.648;2022-09-30T07:57:34;100945.09;;;10.82;100.00
67654;BME280;54791;52.364;4.648;2022-09-30T08:00:00;100948.44;;;10.87;100.00
67654;BME280;54791;52.364;4.648;2022-09-30T08:02:25;100956.19;;;10.92;100.00
67654;BME280;54791;52.364;4.648;2022-09-30T08:04:51;100952.25;;;11.04;100.00
67654;BME280;54791;52.364;4.648;2022-09-30T08:07:17;100950.59;;;11.00;100.00
67654;BME280;54791;52.364;4.648;2022-09-30T08:09:43;100953.38;;;10.97;100.00
67654;BME280;54791;52.364;4.648;2022-09-30T08:12:09;100957.09;;;10.93;100.00
67654;BME280;54791;52.364;4.648;2022-09-30T08:14:35;100953.69;;;10.89;100.00
67654;BME280;54791;52.364;4.648;2022-09-30T08:17:01;100956.56;;;10.83;100.00
67654;BME280;54791;52.364;4.648;2022-09-30T08:19:28;100959.06;;;10.87;100.00
67654;BME280;54791;52.364;4.648;2022-09-30T08:21:55;100961.00;;;11.06;100.00
67654;BME280;54791;52.364;4.648;2022-09-30T08:24:21;100957.56;;;11.04;100.00
67654;BME280;54791;52.364;4.648;2022-09-30T08:26:47;100961.19;;;11.01;100.00
67654;BME280;54791;52.364;4.648;2022-09-30T08:29:13;100968.25;;;11.01;100.00
67654;BME280;54791;52.364;4.648;2022-09-30T08:31:40;100964.63;;;11.03;100.00
67654;BME280;54791;52.364;4.648;2022-09-30T08:34:06;100961.81;;;11.08;100.00
67654;BME280;54791;52.364;4.648;2022-09-30T08:36:32;100961.69;;;11.11;100.00
67654;BME280;54791;52.364;4.648;2022-09-30T08:38:58;100964.09;;;11.17;100.00
67654;BME280;54791;52.364;4.648;2022-09-30T08:41:47;100959.34;;;11.26;100.00
67654;BME280;54791;52.364;4.648;2022-09-30T08:44:22;100961.94;;;11.27;100.00
67654;BME280;54791;52.364;4.648;2022-09-30T08:52:52;100961.59;;;11.59;100.00
67654;BME280;54791;52.364;4.648;2022-09-30T08:55:22;100954.84;;;11.50;100.00
67654;BME280;54791;52.364;4.648;2022-09-30T08:57:50;100957.13;;;11.37;100.00
67654;BME280;54791;52.364;4.648;2022-09-30T09:00:18;100956.06;;;11.41;100.00
67654;BME280;54791;52.364;4.648;2022-09-30T09:05:23;100951.88;;;11.58;100.00
67654;BME280;54791;52.364;4.648;2022-09-30T09:08:10;100958.34;;;11.50;100.00
67654;BME280;54791;52.364;4.648;2022-09-30T09:10:49;100962.13;;;11.45;100.00
67654;BME280;54791;52.364;4.648;2022-09-30T09:16:01;100966.69;;;11.41;100.00
67654;BME280;54791;52.364;4.648;2022-09-30T09:19:14;100969.97;;;11.26;100.00
67654;BME280;54791;52.364;4.648;2022-09-30T09:21:52;100973.78;;;11.18;100.00
67654;BME280;54791;52.364;4.648;2022-09-30T09:24:43;100962.44;;;11.37;100.00
67654;BME280;54791;52.364;4.648;2022-09-30T09:27:29;100962.69;;;11.53;100.00
67654;BME280;54791;52.364;4.648;2022-09-30T09:32:33;100962.97;;;11.45;100.00
67654;BME280;54791;52.364;4.648;2022-09-30T09:35:11;100966.47;;;11.47;100.00
67654;BME280;54791;52.364;4.648;2022-09-30T09:43:40;100978.94;;;11.67;100.00
67654;BME280;54791;52.364;4.648;2022-09-30T09:49:27;100962.69;;;11.75;100.00
67654;BME280;54791;52.364;4.648;2022-09-30T09:51:39;100951.28;;;11.94;100.00
67654;BME280;54791;52.364;4.648;2022-09-30T09:54:10;100961.03;;;12.15;100.00
67654;BME280;54791;52.364;4.648;2022-09-30T09:56:37;100954.91;;;12.13;100.00
67654;BME280;54791;52.364;4.648;2022-09-30T09:59:14;100953.97;;;12.14;100.00
67654;BME280;54791;52.364;4.648;2022-09-30T10:01:45;100946.34;;;12.27;100.00
67654;BME280;54791;52.364;4.648;2022-09-30T10:04:23;100953.41;;;12.27;100.00
67654;BME280;54791;52.364;4.648;2022-09-30T10:07:00;100950.75;;;12.27;100.00
67654;BME280;54791;52.364;4.648;2022-09-30T10:12:24;100942.81;;;13.43;100.00
67654;BME280;54791;52.364;4.648;2022-09-30T10:14:55;100941.88;;;13.98;100.00
67654;BME280;54791;52.364;4.648;2022-09-30T10:17:28;100933.91;;;14.31;100.00
67654;BME280;54791;52.364;4.648;2022-09-30T10:20:16;100935.75;;;14.64;100.00
67654;BME280;54791;52.364;4.648;2022-09-30T10:22:43;100929.75;;;14.93;100.00
67654;BME280;54791;52.364;4.648;2022-09-30T10:25:29;100925.13;;;14.96;100.00
67654;BME280;54791;52.364;4.648;2022-09-30T10:28:01;100926.63;;;14.69;100.00
67654;BME280;54791;52.364;4.648;2022-09-30T10:33:14;100928.22;;;14.89;100.00
67654;BME280;54791;52.364;4.648;2022-09-30T10:36:01;100922.94;;;15.35;100.00
67654;BME280;54791;52.364;4.648;2022-09-30T10:38:28;100920.66;;;15.59;100.00
67654;BME280;54791;52.364;4.648;2022-09-30T10:40:57;100934.16;;;15.72;100.00
67654;BME280;54791;52.364;4.648;2022-09-30T10:43:30;100929.25;;;15.34;100.00
67654;BME280;54791;52.364;4.648;2022-09-30T10:45:58;100921.13;;;15.04;100.00
67654;BME280;54791;52.364;4.648;2022-09-30T10:48:32;100921.38;;;14.67;100.00
67654;BME280;54791;52.364;4.648;2022-09-30T10:50:59;100919.63;;;14.66;100.00
67654;BME280;54791;52.364;4.648;2022-09-30T10:53:27;100920.69;;;14.46;100.00
67654;BME280;54791;52.364;4.648;2022-09-30T10:55:55;100919.16;;;14.42;100.00
67654;BME280;54791;52.364;4.648;2022-09-30T10:58:47;100914.97;;;14.36;100.00
67654;BME280;54791;52.364;4.648;2022-09-30T11:01:35;100911.16;;;14.42;100.00
67654;BME280;54791;52.364;4.648;2022-09-30T11:04:36;100915.50;;;14.43;100.00
67654;BME280;54791;52.364;4.648;2022-09-30T11:06:52;100907.91;;;14.35;100.00
67654;BME280;54791;52.364;4.648;2022-09-30T11:09:28;100908.72;;;14.20;100.00
67654;BME280;54791;52.364;4.648;2022-09-30T11:12:19;100908.91;;;14.16;100.00
67654;BME280;54791;52.364;4.648;2022-09-30T11:14:56;100910.94;;;14.11;100.00
67654;BME280;54791;52.364;4.648;2022-09-30T11:17:33;100906.97;;;14.36;100.00
67654;BME280;54791;52.364;4.648;2022-09-30T11:20:28;100907.81;;;14.54;100.00
67654;BME280;54791;52.364;4.648;2022-09-30T11:34:18;100881.09;;;15.50;100.00
67654;BME280;54791;52.364;4.648;2022-09-30T11:36:58;100896.78;;;15.56;100.00
67654;BME280;54791;52.364;4.648;2022-09-30T11:45:41;100872.78;;;16.15;100.00
67654;BME280;54791;52.364;4.648;2022-09-30T11:56:31;100869.84;;;15.75;100.00
67654;BME280;54791;52.364;4.648;2022-09-30T11:59:00;100859.25;;;15.43;100.00
67654;BME280;54791;52.364;4.648;2022-09-30T12:04:06;100857.41;;;15.13;100.00
67654;BME280;54791;52.364;4.648;2022-09-30T12:06:36;100850.34;;;15.73;100.00
67654;BME280;54791;52.364;4.648;2022-09-30T12:09:16;100857.78;;;16.27;100.00
67654;BME280;54791;52.364;4.648;2022-09-30T12:12:06;100854.41;;;16.81;100.00
67654;BME280;54791;52.364;4.648;2022-09-30T12:14:44;100855.16;;;16.69;100.00
67654;BME280;54791;52.364;4.648;2022-09-30T12:19:52;100848.81;;;16.43;100.00
67654;BME280;54791;52.364;4.648;2022-09-30T12:24:47;100859.50;;;16.57;100.00
67654;BME280;54791;52.364;4.648;2022-09-30T12:27:34;100856.34;;;16.51;100.00
67654;BME280;54791;52.364;4.648;2022-09-30T12:30:14;100842.75;;;16.68;100.00
67654;BME280;54791;52.364;4.648;2022-09-30T12:41:31;100835.19;;;16.60;100.00
67654;BME280;54791;52.364;4.648;2022-09-30T12:49:46;100823.88;;;16.13;100.00
67654;BME280;54791;52.364;4.648;2022-09-30T12:52:16;100830.06;;;16.43;100.00
67654;BME280;54791;52.364;4.648;2022-09-30T12:57:25;100821.06;;;17.00;100.00
67654;BME280;54791;52.364;4.648;2022-09-30T12:59:55;100823.31;;;16.93;100.00
67654;BME280;54791;52.364;4.648;2022-09-30T13:02:43;100814.91;;;16.71;100.00
67654;BME280;54791;52.364;4.648;2022-09-30T13:10:43;100802.75;;;15.94;100.00
67654;BME280;54791;52.364;4.648;2022-09-30T13:23:39;100791.00;;;15.97;100.00
67654;BME280;54791;52.364;4.648;2022-09-30T13:31:26;100795.59;;;16.24;100.00
67654;BME280;54791;52.364;4.648;2022-09-30T13:34:04;100780.88;;;16.31;100.00
67654;BME280;54791;52.364;4.648;2022-09-30T13:36:56;100785.75;;;16.39;100.00
67654;BME280;54791;52.364;4.648;2022-09-30T13:39:44;100782.63;;;16.32;100.00
67654;BME280;54791;52.364;4.648;2022-09-30T13:42:16;100789.44;;;16.51;100.00
67654;BME280;54791;52.364;4.648;2022-09-30T13:45:11;100783.63;;;16.44;100.00
67654;BME280;54791;52.364;4.648;2022-09-30T13:50:28;100780.41;;;16.39;100.00
67654;BME280;54791;52.364;4.648;2022-09-30T13:53:00;100784.00;;;16.52;100.00
67654;BME280;54791;52.364;4.648;2022-09-30T13:55:49;100789.75;;;16.31;100.00
67654;BME280;54791;52.364;4.648;2022-09-30T14:22:10;100746.63;;;17.05;100.00
67654;BME280;54791;52.364;4.648;2022-09-30T14:24:38;100740.91;;;17.37;100.00
67654;BME280;54791;52.364;4.648;2022-09-30T14:32:40;100738.28;;;16.97;100.00
67654;BME280;54791;52.364;4.648;2022-09-30T14:35:19;100741.69;;;16.99;100.00
67654;BME280;54791;52.364;4.648;2022-09-30T14:38:17;100745.13;;;17.01;100.00
67654;BME280;54791;52.364;4.648;2022-09-30T14:40:51;100751.44;;;16.73;100.00
67654;BME280;54791;52.364;4.648;2022-09-30T14:43:22;100740.72;;;17.00;100.00
67654;BME280;54791;52.364;4.648;2022-09-30T14:45:58;100752.72;;;16.53;100.00
67654;BME280;54791;52.364;4.648;2022-09-30T14:48:35;100749.91;;;16.41;96.36
67654;BME280;54791;52.364;4.648;2022-09-30T14:51:13;100741.69;;;16.44;86.65
67654;BME280;54791;52.364;4.648;2022-09-30T14:53:58;100741.00;;;16.68;76.36
67654;BME280;54791;52.364;4.648;2022-09-30T14:56:30;100745.78;;;16.77;75.64
67654;BME280;54791;52.364;4.648;2022-09-30T14:58:57;100740.63;;;16.74;80.15
67654;BME280;54791;52.364;4.648;2022-09-30T15:01:29;100722.31;;;16.81;79.12
67654;BME280;54791;52.364;4.648;2022-09-30T15:04:21;100739.56;;;16.77;73.92
67654;BME280;54791;52.364;4.648;2022-09-30T15:06:58;100727.38;;;16.86;80.31
67654;BME280;54791;52.364;4.648;2022-09-30T15:09:45;100736.28;;;17.26;74.59
67654;BME280;54791;52.364;4.648;2022-09-30T15:12:14;100733.88;;;16.96;74.60
67654;BME280;54791;52.364;4.648;2022-09-30T15:15:00;100725.19;;;16.92;79.17
67654;BME280;54791;52.364;4.648;2022-09-30T15:17:29;100732.59;;;17.02;81.34
67654;BME280;54791;52.364;4.648;2022-09-30T15:19:59;100723.56;;;16.62;78.91
67654;BME280;54791;52.364;4.648;2022-09-30T15:22:27;100734.16;;;16.37;82.89
67654;BME280;54791;52.364;4.648;2022-09-30T15:24:56;100735.94;;;16.09;81.11
67654;BME280;54791;52.364;4.648;2022-09-30T15:27:29;100736.09;;;16.06;88.48
67654;BME280;54791;52.364;4.648;2022-09-30T15:30:02;100729.63;;;15.95;89.01
67654;BME280;54791;52.364;4.648;2022-09-30T15:32:32;100730.31;;;15.85;87.82
67654;BME280;54791;52.364;4.648;2022-09-30T15:35:15;100736.28;;;15.74;85.77
67654;BME280;54791;52.364;4.648;2022-09-30T15:37:44;100735.63;;;15.56;88.86
67654;BME280;54791;52.364;4.648;2022-09-30T15:40:20;100736.78;;;15.66;89.26
67654;BME280;54791;52.364;4.648;2022-09-30T15:43:07;100731.78;;;15.60;90.05
67654;BME280;54791;52.364;4.648;2022-09-30T15:45:39;100721.16;;;15.44;90.02
67654;BME280;54791;52.364;4.648;2022-09-30T15:48:31;100722.41;;;15.38;91.84
67654;BME280;54791;52.364;4.648;2022-09-30T15:50:59;100706.56;;;15.35;95.45
67654;BME280;54791;52.364;4.648;2022-09-30T15:56:24;100710.34;;;15.31;100.00
67654;BME280;54791;52.364;4.648;2022-09-30T15:59:13;100715.88;;;15.13;96.33
67654;BME280;54791;52.364;4.648;2022-09-30T16:01:50;100721.41;;;15.10;99.01